Time;durP1;ratioP1;P1;durP2;ratioP2;P2;SDS_P1;SDS_P2;PMS_P1;PMS_P2;Temp;Humidity;BMP_temperature;BMP_pressure;BME280_temperature;BME280_humidity;BME280_pressure;Samples;Min_cycle;Max_cycle;Signal;HPM_P1;HPM_P2
2022/03/27 00:01:56;;;;;;;;;;;8.40;99.90;;;;;;5093307;28;19908;-45
2022/03/27 00:04:21;;;;;;;;;;;8.40;99.90;;;;;;5093740;28;20240;-45
2022/03/27 00:06:47;;;;;;;;;;;8.50;99.90;;;;;;5093803;28;19950;-45
2022/03/27 00:09:12;;;;;;;;;;;8.50;99.90;;;;;;5093147;28;19915;-45
2022/03/27 00:11:37;;;;;;;;;;;8.50;99.90;;;;;;5093653;28;19908;-46
2022/03/27 00:14:04;;;;;;;;;;;8.50;99.90;;;;;;5093491;28;19908;-45
2022/03/27 00:16:30;;;;;;;;;;;8.50;99.90;;;;;;5093179;28;19931;-45
2022/03/27 00:18:56;;;;;;;;;;;8.50;99.90;;;;;;5093728;28;20359;-45
2022/03/27 00:21:22;;;;;;;;;;;8.50;99.90;;;;;;5093527;28;19916;-45
2022/03/27 00:23:48;;;;;;;;;;;8.50;99.90;;;;;;5093174;28;20065;-45
2022/03/27 00:26:14;;;;;;;;;;;8.50;99.90;;;;;;5093514;28;20390;-45
2022/03/27 00:28:40;;;;;;;;;;;8.50;99.90;;;;;;5093595;28;19915;-45
2022/03/27 00:31:07;;;;;;;;;;;8.50;99.90;;;;;;5092890;28;19995;-46
2022/03/27 00:33:33;;;;;;;;;;;8.50;99.90;;;;;;5093072;28;20341;-45
2022/03/27 00:36:00;;;;;;;;;;;8.50;99.90;;;;;;5093454;28;19908;-45
2022/03/27 00:38:26;;;;;;;;;;;8.50;99.90;;;;;;5092925;28;19912;-45
2022/03/27 00:40:52;;;;;;;;;;;8.50;99.90;;;;;;5093244;28;19917;-45
2022/03/27 00:43:21;;;;;;;;;;;8.50;99.90;;;;;;5093243;28;19912;-45
2022/03/27 00:45:47;;;;;;;;;;;8.50;99.90;;;;;;5092861;28;19912;-45
2022/03/27 00:48:13;;;;;;;;;;;8.40;99.90;;;;;;5093261;28;20351;-46
2022/03/27 00:50:38;;;;;;;;;;;8.40;99.90;;;;;;5093283;28;19915;-46
2022/03/27 00:53:04;;;;;;;;;;;8.30;99.90;;;;;;5092717;28;19908;-45
2022/03/27 00:55:29;;;;;;;;;;;8.30;99.90;;;;;;5093240;28;19908;-45
2022/03/27 00:57:55;;;;;;;;;;;8.20;99.90;;;;;;5093234;28;19908;-45
2022/03/27 01:00:39;;;;;;;;;;;8.10;99.90;;;;;;5092509;28;19924;-45
2022/03/27 01:03:05;;;;;;;;;;;8.10;99.90;;;;;;5094673;28;19908;-45
2022/03/27 01:05:31;;;;;;;;;;;8.10;99.90;;;;;;5096576;28;20049;-45
2022/03/27 01:07:56;;;;;;;;;;;8.10;99.90;;;;;;5097135;28;20360;-45
2022/03/27 01:10:24;;;;;;;;;;;8.00;99.90;;;;;;5096953;28;19908;-45
2022/03/27 01:12:50;;;;;;;;;;;8.00;99.90;;;;;;5096307;28;20344;-45
2022/03/27 01:15:23;;;;;;;;;;;8.00;99.90;;;;;;5096842;28;20023;-45
2022/03/27 01:17:49;;;;;;;;;;;7.90;99.90;;;;;;5096883;28;19915;-45
2022/03/27 01:20:21;;;;;;;;;;;7.90;99.90;;;;;;5096196;28;19916;-45
2022/03/27 01:22:47;;;;;;;;;;;7.90;99.90;;;;;;5096666;28;19916;-45
2022/03/27 01:25:12;;;;;;;;;;;7.80;99.90;;;;;;5096679;28;19915;-45
2022/03/27 01:27:38;;;;;;;;;;;7.80;99.90;;;;;;5096171;28;19934;-46
2022/03/27 01:30:03;;;;;;;;;;;7.80;99.90;;;;;;5096656;28;19908;-46
2022/03/27 01:32:29;;;;;;;;;;;7.80;99.90;;;;;;5096329;28;19920;-45
2022/03/27 01:34:54;;;;;;;;;;;7.70;99.90;;;;;;5096014;28;20011;-46
2022/03/27 01:37:19;;;;;;;;;;;7.70;99.90;;;;;;5096384;28;19916;-45
2022/03/27 01:39:45;;;;;;;;;;;7.60;99.90;;;;;;5096459;28;20309;-45
2022/03/27 01:42:10;;;;;;;;;;;7.60;99.90;;;;;;5095830;28;19984;-45
2022/03/27 01:44:36;;;;;;;;;;;7.50;99.90;;;;;;5096461;28;19916;-45
2022/03/27 01:47:02;;;;;;;;;;;7.50;99.90;;;;;;5096289;28;19908;-45
2022/03/27 01:49:27;;;;;;;;;;;7.50;99.90;;;;;;5095775;28;19916;-45
2022/03/27 01:51:53;;;;;;;;;;;7.50;99.90;;;;;;5096144;28;19908;-45
2022/03/27 01:54:19;;;;;;;;;;;7.40;99.90;;;;;;5095931;28;19965;-45
2022/03/27 01:56:44;;;;;;;;;;;7.40;99.90;;;;;;5096226;28;19908;-46
2022/03/27 01:59:10;;;;;;;;;;;7.40;99.90;;;;;;5096061;28;19908;-45
2022/03/27 02:01:36;;;;;;;;;;;7.30;99.90;;;;;;5095719;28;19916;-45
2022/03/27 02:04:03;;;;;;;;;;;7.30;99.90;;;;;;5096041;28;20276;-45
2022/03/27 02:06:28;;;;;;;;;;;7.20;99.90;;;;;;5095928;28;20271;-45
2022/03/27 02:08:54;;;;;;;;;;;7.10;99.90;;;;;;5095324;28;19912;-45
2022/03/27 02:11:19;;;;;;;;;;;7.10;99.90;;;;;;5095803;28;19965;-45
2022/03/27 02:13:45;;;;;;;;;;;7.10;99.90;;;;;;5095753;28;19908;-45
2022/03/27 02:16:10;;;;;;;;;;;7.00;99.90;;;;;;5095179;28;20271;-45
2022/03/27 02:18:36;;;;;;;;;;;6.90;99.90;;;;;;5095866;28;19964;-45
2022/03/27 02:21:02;;;;;;;;;;;6.80;99.90;;;;;;5095503;28;20007;-45
2022/03/27 02:23:28;;;;;;;;;;;6.70;99.90;;;;;;5095264;28;20064;-44
2022/03/27 02:25:54;;;;;;;;;;;6.70;99.90;;;;;;5095630;28;20326;-45
2022/03/27 02:28:19;;;;;;;;;;;6.70;99.90;;;;;;5095558;28;19908;-45
2022/03/27 02:30:47;;;;;;;;;;;6.60;99.90;;;;;;5094890;28;19912;-45
2022/03/27 02:33:12;;;;;;;;;;;6.60;99.90;;;;;;5095164;28;19985;-45
2022/03/27 02:35:38;;;;;;;;;;;6.60;99.90;;;;;;5095372;28;19908;-44
2022/03/27 02:38:05;;;;;;;;;;;6.50;99.90;;;;;;5094667;28;19908;-45
2022/03/27 02:40:34;;;;;;;;;;;6.50;99.90;;;;;;5095202;28;19939;-45
2022/03/27 02:43:00;;;;;;;;;;;6.50;99.90;;;;;;5095200;28;19915;-46
2022/03/27 02:45:29;;;;;;;;;;;6.60;99.90;;;;;;5094675;28;19908;-46
2022/03/27 02:47:55;;;;;;;;;;;6.60;99.90;;;;;;5095241;28;19915;-45
2022/03/27 02:50:21;;;;;;;;;;;6.50;99.90;;;;;;5095005;28;19912;-46
2022/03/27 02:52:46;;;;;;;;;;;6.50;99.90;;;;;;5094482;28;19985;-45
2022/03/27 02:55:12;;;;;;;;;;;6.50;99.90;;;;;;5094993;28;19962;-45
2022/03/27 02:57:38;;;;;;;;;;;6.50;99.90;;;;;;5094397;28;20294;-45
2022/03/27 03:00:05;;;;;;;;;;;6.50;99.90;;;;;;5094657;28;20355;-45
2022/03/27 03:02:30;;;;;;;;;;;6.50;99.90;;;;;;5094789;28;19931;-45
2022/03/27 03:04:56;;;;;;;;;;;6.40;99.90;;;;;;5094240;28;20394;-45
2022/03/27 03:07:22;;;;;;;;;;;6.40;99.90;;;;;;5094619;28;19916;-45
2022/03/27 03:09:47;;;;;;;;;;;6.40;99.90;;;;;;5094651;28;20279;-45
2022/03/27 03:12:12;;;;;;;;;;;6.40;99.90;;;;;;5094137;28;19908;-45
2022/03/27 03:14:38;;;;;;;;;;;6.30;99.90;;;;;;5094744;28;19954;-46
2022/03/27 03:17:04;;;;;;;;;;;6.20;99.90;;;;;;5094533;28;20375;-44
2022/03/27 03:19:30;;;;;;;;;;;6.20;99.90;;;;;;5093873;28;19918;-45
2022/03/27 03:21:55;;;;;;;;;;;6.10;99.90;;;;;;5094475;28;19908;-45
2022/03/27 03:24:21;;;;;;;;;;;6.10;99.90;;;;;;5094729;28;19908;-45
2022/03/27 03:26:48;;;;;;;;;;;6.10;99.90;;;;;;5093514;28;19912;-44
2022/03/27 03:29:14;;;;;;;;;;;6.10;99.90;;;;;;5094228;28;19914;-45
2022/03/27 03:31:39;;;;;;;;;;;6.10;99.90;;;;;;5094373;28;20026;-45
2022/03/27 03:34:04;;;;;;;;;;;6.20;99.90;;;;;;5093304;28;19924;-44
2022/03/27 03:36:30;;;;;;;;;;;6.20;99.90;;;;;;5094300;28;19914;-45
2022/03/27 03:38:55;;;;;;;;;;;6.20;99.90;;;;;;5094279;28;19950;-45
2022/03/27 03:41:21;;;;;;;;;;;6.20;99.90;;;;;;5093518;28;19920;-45
2022/03/27 03:43:46;;;;;;;;;;;6.30;99.90;;;;;;5094112;28;19964;-44
2022/03/27 03:46:12;;;;;;;;;;;6.30;99.90;;;;;;5094049;28;19909;-45
2022/03/27 03:48:37;;;;;;;;;;;6.30;99.90;;;;;;5093378;28;19908;-46
2022/03/27 03:51:03;;;;;;;;;;;6.30;99.90;;;;;;5093906;28;19908;-45
2022/03/27 03:53:28;;;;;;;;;;;6.30;99.90;;;;;;5093946;28;19908;-45
2022/03/27 03:55:54;;;;;;;;;;;6.30;99.90;;;;;;5093389;28;19909;-45
2022/03/27 03:58:19;;;;;;;;;;;6.40;99.90;;;;;;5093915;28;20263;-45
2022/03/27 04:00:46;;;;;;;;;;;6.40;99.90;;;;;;5093927;28;19962;-45
2022/03/27 04:03:13;;;;;;;;;;;6.40;99.90;;;;;;5092975;28;20297;-45
2022/03/27 04:05:38;;;;;;;;;;;6.50;99.90;;;;;;5093926;28;19916;-45
2022/03/27 04:08:04;;;;;;;;;;;6.50;99.90;;;;;;5093266;28;20041;-45
2022/03/27 04:10:30;;;;;;;;;;;6.50;99.90;;;;;;5093810;28;19908;-46
2022/03/27 04:12:56;;;;;;;;;;;6.60;99.90;;;;;;5093728;28;19968;-45
2022/03/27 04:15:21;;;;;;;;;;;6.60;99.90;;;;;;5093117;28;19912;-46
2022/03/27 04:17:48;;;;;;;;;;;6.60;99.90;;;;;;5093561;28;19916;-45
2022/03/27 04:20:14;;;;;;;;;;;6.70;99.90;;;;;;5093465;28;19924;-46
2022/03/27 04:22:40;;;;;;;;;;;6.70;99.90;;;;;;5093168;28;19931;-46
2022/03/27 04:25:06;;;;;;;;;;;6.80;99.90;;;;;;5093392;28;19909;-46
2022/03/27 04:27:32;;;;;;;;;;;6.80;99.90;;;;;;5093539;28;19912;-45
2022/03/27 04:29:57;;;;;;;;;;;6.90;99.90;;;;;;5092994;28;19996;-45
2022/03/27 04:32:23;;;;;;;;;;;6.90;99.90;;;;;;5092866;28;19931;-45
2022/03/27 04:34:50;;;;;;;;;;;6.90;99.90;;;;;;5093520;28;20006;-46
2022/03/27 04:37:16;;;;;;;;;;;6.90;99.90;;;;;;5092961;28;19908;-44
2022/03/27 04:39:41;;;;;;;;;;;6.90;99.90;;;;;;5097648;28;20503;-46
2022/03/27 04:42:07;;;;;;;;;;;7.00;99.90;;;;;;5097550;28;19919;-45
2022/03/27 04:44:32;;;;;;;;;;;7.00;99.90;;;;;;5097067;28;19965;-45
2022/03/27 04:46:58;;;;;;;;;;;7.00;99.90;;;;;;5097392;28;19948;-46
2022/03/27 04:49:23;;;;;;;;;;;7.00;99.90;;;;;;5097433;28;19908;-46
2022/03/27 04:51:49;;;;;;;;;;;7.10;99.90;;;;;;5096934;28;20354;-45
2022/03/27 04:54:14;;;;;;;;;;;7.10;99.90;;;;;;5097313;28;20309;-45
2022/03/27 04:56:40;;;;;;;;;;;7.10;99.90;;;;;;5097308;28;20321;-47
2022/03/27 04:59:05;;;;;;;;;;;7.10;99.90;;;;;;5096736;28;19915;-45
2022/03/27 05:01:31;;;;;;;;;;;7.10;99.90;;;;;;5096975;28;20349;-46
2022/03/27 05:03:56;;;;;;;;;;;7.10;99.90;;;;;;5097149;28;20361;-45
2022/03/27 05:06:22;;;;;;;;;;;7.10;99.90;;;;;;5096543;28;19915;-45
2022/03/27 05:08:47;;;;;;;;;;;7.20;99.90;;;;;;5096932;28;19908;-45
2022/03/27 05:11:13;;;;;;;;;;;7.20;99.90;;;;;;5096759;28;19908;-48
2022/03/27 05:13:38;;;;;;;;;;;7.20;99.90;;;;;;5096750;28;19908;-45
2022/03/27 05:16:04;;;;;;;;;;;7.20;99.90;;;;;;5096852;28;19915;-47
2022/03/27 05:18:30;;;;;;;;;;;7.30;99.90;;;;;;5096446;28;19908;-45
2022/03/27 05:20:55;;;;;;;;;;;7.30;99.90;;;;;;5096802;28;20406;-45
2022/03/27 05:23:21;;;;;;;;;;;7.30;99.90;;;;;;5096730;28;20432;-45
2022/03/27 05:25:49;;;;;;;;;;;7.30;99.90;;;;;;5096156;28;20360;-45
2022/03/27 05:28:14;;;;;;;;;;;7.30;99.90;;;;;;5096543;28;20351;-47
2022/03/27 05:30:40;;;;;;;;;;;7.30;99.90;;;;;;5096641;28;19908;-45
2022/03/27 05:33:05;;;;;;;;;;;7.30;99.90;;;;;;5094979;28;20386;-45
2022/03/27 05:35:31;;;;;;;;;;;7.30;99.90;;;;;;5095369;28;19914;-46
2022/03/27 05:37:58;;;;;;;;;;;7.30;99.90;;;;;;5095423;28;19959;-45
2022/03/27 05:40:24;;;;;;;;;;;7.30;99.90;;;;;;5094697;28;19969;-45
2022/03/27 05:42:50;;;;;;;;;;;7.30;99.90;;;;;;5095318;28;19911;-46
2022/03/27 05:45:16;;;;;;;;;;;7.30;99.90;;;;;;5095223;28;19909;-45
2022/03/27 05:47:42;;;;;;;;;;;7.40;99.90;;;;;;5094614;28;19918;-45
2022/03/27 05:50:09;;;;;;;;;;;7.40;99.90;;;;;;5094698;28;19912;-45
2022/03/27 05:52:34;;;;;;;;;;;7.40;99.90;;;;;;5095046;28;20369;-45
2022/03/27 05:55:00;;;;;;;;;;;7.40;99.90;;;;;;5094508;28;19915;-46
2022/03/27 05:57:25;;;;;;;;;;;7.40;99.90;;;;;;5094965;28;20006;-45
2022/03/27 05:59:51;;;;;;;;;;;7.50;99.90;;;;;;5094842;28;19954;-45
2022/03/27 06:02:16;;;;;;;;;;;7.50;99.90;;;;;;5094358;28;20382;-45
2022/03/27 06:04:42;;;;;;;;;;;7.50;99.90;;;;;;5094957;28;19915;-45
2022/03/27 06:07:08;;;;;;;;;;;7.60;99.90;;;;;;5094827;28;19912;-45
2022/03/27 06:09:33;;;;;;;;;;;7.60;99.90;;;;;;5094478;28;19970;-45
2022/03/27 06:11:59;;;;;;;;;;;7.60;99.90;;;;;;5094819;28;19944;-46
2022/03/27 06:14:25;;;;;;;;;;;7.60;99.90;;;;;;5094669;28;20018;-46
2022/03/27 06:16:51;;;;;;;;;;;7.70;99.90;;;;;;5094199;28;20272;-46
2022/03/27 06:19:16;;;;;;;;;;;7.70;99.90;;;;;;5094644;28;20266;-45
2022/03/27 06:21:43;;;;;;;;;;;7.70;99.90;;;;;;5094113;28;19999;-45
2022/03/27 06:24:09;;;;;;;;;;;7.80;99.90;;;;;;5094458;28;20002;-45
2022/03/27 06:26:34;;;;;;;;;;;7.80;99.90;;;;;;5094531;28;19947;-46
2022/03/27 06:29:00;;;;;;;;;;;7.90;99.90;;;;;;5093937;28;19909;-45
2022/03/27 06:31:25;;;;;;;;;;;7.90;99.90;;;;;;5094485;28;20353;-45
2022/03/27 06:33:51;;;;;;;;;;;8.00;99.90;;;;;;5033696;28;1724859;-47
2022/03/27 06:36:17;;;;;;;;;;;8.00;99.90;;;;;;5094835;28;19912;-45
2022/03/27 06:38:43;;;;;;;;;;;8.00;99.90;;;;;;5095435;28;19912;-46
2022/03/27 06:41:09;;;;;;;;;;;8.10;99.90;;;;;;5095186;28;19977;-46
2022/03/27 06:43:36;;;;;;;;;;;8.10;99.90;;;;;;5094620;28;19908;-45
2022/03/27 06:46:02;;;;;;;;;;;8.20;99.90;;;;;;5095175;28;19908;-45
2022/03/27 06:48:27;;;;;;;;;;;8.20;99.90;;;;;;5095167;28;20275;-45
2022/03/27 06:50:53;;;;;;;;;;;8.30;99.90;;;;;;5094662;28;19960;-47
2022/03/27 06:53:20;;;;;;;;;;;8.30;99.90;;;;;;5095000;28;20373;-45
2022/03/27 06:55:46;;;;;;;;;;;8.30;99.90;;;;;;5094952;28;20386;-46
2022/03/27 06:58:12;;;;;;;;;;;8.40;99.90;;;;;;5094273;28;19916;-45
2022/03/27 07:03:21;;;;;;;;;;;8.50;99.90;;;;;;5094846;28;20057;-45
2022/03/27 07:05:47;;;;;;;;;;;8.60;99.90;;;;;;5094394;28;20370;-46
2022/03/27 07:08:13;;;;;;;;;;;8.60;99.90;;;;;;5094690;28;19908;-46
2022/03/27 07:10:39;;;;;;;;;;;8.70;99.90;;;;;;5094732;28;20000;-44
2022/03/27 07:13:08;;;;;;;;;;;8.70;99.90;;;;;;5094102;28;19962;-44
2022/03/27 07:15:33;;;;;;;;;;;8.70;99.90;;;;;;5094709;28;19919;-46
2022/03/27 07:17:59;;;;;;;;;;;8.80;99.90;;;;;;5094121;28;19908;-45
2022/03/27 07:20:26;;;;;;;;;;;8.80;99.90;;;;;;5094411;28;20018;-45
2022/03/27 07:22:53;;;;;;;;;;;8.80;99.90;;;;;;5094514;28;19915;-45
2022/03/27 07:25:19;;;;;;;;;;;8.90;99.90;;;;;;5093887;28;19914;-45
2022/03/27 07:27:44;;;;;;;;;;;8.90;99.90;;;;;;5094333;28;19912;-45
2022/03/27 07:30:10;;;;;;;;;;;8.90;99.90;;;;;;5094322;28;19908;-45
2022/03/27 07:32:36;;;;;;;;;;;9.00;99.90;;;;;;5093574;28;19920;-46
2022/03/27 07:35:02;;;;;;;;;;;9.00;99.90;;;;;;5094374;28;19908;-45
2022/03/27 07:37:30;;;;;;;;;;;9.10;99.90;;;;;;5094291;28;20301;-46
2022/03/27 07:39:55;;;;;;;;;;;9.10;99.90;;;;;;5093623;28;19912;-45
2022/03/27 07:42:21;;;;;;;;;;;9.10;99.90;;;;;;5094124;28;20073;-45
2022/03/27 07:44:47;;;;;;;;;;;9.20;99.90;;;;;;5094254;28;19908;-46
2022/03/27 07:47:12;;;;;;;;;;;9.20;99.90;;;;;;5093651;28;19915;-45
2022/03/27 07:49:38;;;;;;;;;;;9.20;99.90;;;;;;5093988;28;19908;-45
2022/03/27 07:52:06;;;;;;;;;;;9.20;99.90;;;;;;5094018;28;19948;-45
2022/03/27 07:54:32;;;;;;;;;;;9.20;99.90;;;;;;5093317;28;19908;-46
2022/03/27 07:56:57;;;;;;;;;;;9.30;99.90;;;;;;5093994;28;19912;-45
2022/03/27 07:59:23;;;;;;;;;;;9.30;99.90;;;;;;5093714;28;20287;-45
2022/03/27 08:01:48;;;;;;;;;;;9.30;99.90;;;;;;5093347;28;19917;-45
2022/03/27 08:04:14;;;;;;;;;;;9.30;99.90;;;;;;5093830;28;19909;-45
2022/03/27 08:06:40;;;;;;;;;;;9.40;99.90;;;;;;5093797;28;19908;-45
2022/03/27 08:09:05;;;;;;;;;;;9.50;99.90;;;;;;5093209;28;20001;-45
2022/03/27 08:11:32;;;;;;;;;;;9.60;99.90;;;;;;5093608;28;19912;-45
2022/03/27 08:13:57;;;;;;;;;;;9.60;99.90;;;;;;5093850;28;19912;-45
2022/03/27 08:16:23;;;;;;;;;;;9.80;99.90;;;;;;5093121;28;19961;-45
2022/03/27 08:18:48;;;;;;;;;;;9.80;99.90;;;;;;5093709;28;20045;-45
2022/03/27 08:21:13;;;;;;;;;;;9.80;99.90;;;;;;5092923;28;20370;-46
2022/03/27 08:23:39;;;;;;;;;;;9.80;99.90;;;;;;5093520;28;20275;-45
2022/03/27 08:28:48;;;;;;;;;;;9.90;99.90;;;;;;5093345;28;19961;-45
2022/03/27 08:31:14;;;;;;;;;;;10.00;99.90;;;;;;5093476;28;19908;-45
2022/03/27 08:33:39;;;;;;;;;;;10.10;99.90;;;;;;5093335;28;19993;-45
2022/03/27 08:36:05;;;;;;;;;;;10.10;99.90;;;;;;5092851;28;20388;-45
2022/03/27 08:38:30;;;;;;;;;;;10.10;99.90;;;;;;5093603;28;19954;-45
2022/03/27 08:41:00;;;;;;;;;;;10.10;99.90;;;;;;5093461;28;19969;-46
2022/03/27 08:43:26;;;;;;;;;;;10.10;99.90;;;;;;5092777;28;19915;-46
2022/03/27 08:45:51;;;;;;;;;;;10.00;99.90;;;;;;5093386;28;19908;-44
2022/03/27 08:48:17;;;;;;;;;;;10.00;99.90;;;;;;5093298;28;19918;-45
2022/03/27 08:50:44;;;;;;;;;;;9.90;99.90;;;;;;5092766;28;19912;-46
2022/03/27 08:53:12;;;;;;;;;;;9.80;99.90;;;;;;5093218;28;19995;-45
2022/03/27 08:55:39;;;;;;;;;;;9.80;99.90;;;;;;5093374;28;19948;-45
2022/03/27 08:58:05;;;;;;;;;;;9.80;99.90;;;;;;5092794;28;19915;-45
2022/03/27 09:00:33;;;;;;;;;;;9.90;99.90;;;;;;5093310;28;19962;-45
2022/03/27 09:03:00;;;;;;;;;;;10.00;99.90;;;;;;5093274;28;20410;-45
2022/03/27 09:05:26;;;;;;;;;;;10.10;99.90;;;;;;5092447;28;19919;-45
2022/03/27 09:07:52;;;;;;;;;;;10.20;99.90;;;;;;5093307;28;20251;-45
2022/03/27 09:10:18;;;;;;;;;;;10.40;99.90;;;;;;5093056;28;20410;-45
2022/03/27 09:12:44;;;;;;;;;;;10.40;99.90;;;;;;5092671;28;19947;-45
2022/03/27 09:15:10;;;;;;;;;;;10.50;99.90;;;;;;5093037;28;19908;-45
2022/03/27 09:17:54;;;;;;;;;;;10.60;99.90;;;;;;5092628;28;19912;-45
2022/03/27 09:20:37;;;;;;;;;;;10.70;99.90;;;;;;5092932;28;19923;-46
2022/03/27 09:23:23;;;;;;;;;;;10.90;99.90;;;;;;5092991;28;19908;-47
2022/03/27 09:25:51;;;;;;;;;;;11.10;99.90;;;;;;5095781;28;19912;-47
2022/03/27 09:28:24;;;;;;;;;;;11.20;99.90;;;;;;5096652;28;19931;-45
2022/03/27 09:30:49;;;;;;;;;;;11.20;99.90;;;;;;5096628;28;20347;-46
2022/03/27 09:33:34;;;;;;;;;;;11.30;99.90;;;;;;5095824;28;19927;-46
2022/03/27 09:36:03;;;;;;;;;;;11.40;99.90;;;;;;5096703;28;19979;-45
2022/03/27 09:38:29;;;;;;;;;;;11.50;99.90;;;;;;5096313;28;19912;-48
2022/03/27 09:40:54;;;;;;;;;;;11.60;99.90;;;;;;5096214;28;19920;-46
2022/03/27 09:43:22;;;;;;;;;;;11.70;99.90;;;;;;5096351;28;19909;-45
2022/03/27 09:46:16;;;;;;;;;;;11.70;99.90;;;;;;5096004;28;19908;-46
2022/03/27 09:48:54;;;;;;;;;;;11.80;99.90;;;;;;5078605;28;19908;-45
2022/03/27 09:51:20;;;;;;;;;;;11.80;99.90;;;;;;5096351;28;20335;-45
2022/03/27 09:53:45;;;;;;;;;;;11.90;99.90;;;;;;5095755;28;19915;-45
2022/03/27 09:56:12;;;;;;;;;;;12.00;99.90;;;;;;5096172;28;19930;-46
2022/03/27 09:58:38;;;;;;;;;;;12.10;99.90;;;;;;5096163;28;19912;-45
2022/03/27 10:01:22;;;;;;;;;;;12.30;99.90;;;;;;5095546;28;19916;-46
2022/03/27 10:03:57;;;;;;;;;;;12.30;99.90;;;;;;5096184;28;19916;-45
2022/03/27 10:06:27;;;;;;;;;;;12.40;99.90;;;;;;5095818;28;19916;-45
2022/03/27 10:08:52;;;;;;;;;;;12.50;99.90;;;;;;5095503;28;19912;-45
2022/03/27 10:11:21;;;;;;;;;;;12.60;99.90;;;;;;5095863;28;19919;-45
2022/03/27 10:13:47;;;;;;;;;;;12.80;99.90;;;;;;5095296;28;20339;-46
2022/03/27 10:16:12;;;;;;;;;;;12.90;99.90;;;;;;5095690;28;20404;-46
2022/03/27 10:18:38;;;;;;;;;;;12.90;99.90;;;;;;5095874;28;19912;-46
2022/03/27 10:21:04;;;;;;;;;;;13.00;99.90;;;;;;5095150;28;19958;-46
2022/03/27 10:23:30;;;;;;;;;;;13.00;99.90;;;;;;5095570;28;19912;-45
2022/03/27 10:25:59;;;;;;;;;;;13.10;99.90;;;;;;5095656;28;19915;-45
2022/03/27 10:28:25;;;;;;;;;;;13.20;99.90;;;;;;5094909;28;20346;-47
2022/03/27 10:30:51;;;;;;;;;;;13.30;99.90;;;;;;5095469;28;20011;-45
2022/03/27 10:33:17;;;;;;;;;;;13.40;99.50;;;;;;5095268;28;19949;-45
2022/03/27 10:35:42;;;;;;;;;;;13.50;99.90;;;;;;5093805;28;19909;-46
2022/03/27 10:38:24;;;;;;;;;;;13.60;99.90;;;;;;5095411;28;19919;-46
2022/03/27 10:41:09;;;;;;;;;;;13.70;97.00;;;;;;5095441;28;19920;-46
2022/03/27 10:43:40;;;;;;;;;;;13.70;99.40;;;;;;5094674;28;19908;-45
2022/03/27 10:46:16;;;;;;;;;;;13.90;99.00;;;;;;5095248;28;19912;-45
2022/03/27 10:48:42;;;;;;;;;;;13.90;91.40;;;;;;5095256;28;20390;-46
2022/03/27 10:51:12;;;;;;;;;;;14.00;94.50;;;;;;5094562;28;19912;-45
2022/03/27 10:53:37;;;;;;;;;;;14.00;93.60;;;;;;5094941;28;19938;-45
2022/03/27 10:56:06;;;;;;;;;;;14.00;94.20;;;;;;5094467;28;19912;-46
2022/03/27 10:58:33;;;;;;;;;;;14.20;85.40;;;;;;5094985;28;19908;-47
2022/03/27 11:01:00;;;;;;;;;;;14.30;95.00;;;;;;5094970;28;19916;-47
2022/03/27 11:03:44;;;;;;;;;;;14.30;93.80;;;;;;5094277;28;19908;-46
2022/03/27 11:06:20;;;;;;;;;;;14.50;93.90;;;;;;5094737;28;19908;-46
2022/03/27 11:08:46;;;;;;;;;;;14.60;77.30;;;;;;5094923;28;19915;-46
2022/03/27 11:11:11;;;;;;;;;;;14.70;90.60;;;;;;5094130;28;20262;-47
2022/03/27 11:13:39;;;;;;;;;;;14.70;81.60;;;;;;5094780;28;20382;-46
2022/03/27 11:16:05;;;;;;;;;;;14.80;88.70;;;;;;5094572;28;19912;-46
2022/03/27 11:18:35;;;;;;;;;;;14.90;80.40;;;;;;5093949;28;19908;-46
2022/03/27 11:21:00;;;;;;;;;;;15.10;84.90;;;;;;5094420;28;20393;-45
2022/03/27 11:23:27;;;;;;;;;;;15.10;80.30;;;;;;5094430;28;19958;-45
2022/03/27 11:25:52;;;;;;;;;;;15.20;80.80;;;;;;5094031;28;20022;-47
2022/03/27 11:28:20;;;;;;;;;;;15.20;82.50;;;;;;5094320;28;19966;-47
2022/03/27 11:30:51;;;;;;;;;;;15.20;74.50;;;;;;5094335;28;20286;-45
2022/03/27 11:33:20;;;;;;;;;;;15.30;79.00;;;;;;5093581;28;19920;-47
2022/03/27 11:36:00;;;;;;;;;;;15.50;81.80;;;;;;5094399;28;20266;-46
2022/03/27 11:38:26;;;;;;;;;;;15.60;77.40;;;;;;5093781;28;20045;-46
2022/03/27 11:40:52;;;;;;;;;;;15.60;79.60;;;;;;5094151;28;20457;-46
2022/03/27 11:43:33;;;;;;;;;;;15.60;67.50;;;;;;5094162;28;19919;-45
2022/03/27 11:45:59;;;;;;;;;;;15.70;70.60;;;;;;5093513;28;19908;-46
2022/03/27 11:48:25;;;;;;;;;;;15.80;74.30;;;;;;5093771;28;19915;-46
2022/03/27 11:50:54;;;;;;;;;;;15.90;65.70;;;;;;5094211;28;20041;-45
2022/03/27 11:53:33;;;;;;;;;;;15.90;61.70;;;;;;5093388;28;19915;-46
2022/03/27 11:56:08;;;;;;;;;;;16.00;66.50;;;;;;5093906;28;19912;-46
2022/03/27 11:58:34;;;;;;;;;;;16.10;61.50;;;;;;5094143;28;19965;-49
2022/03/27 12:01:04;;;;;;;;;;;16.10;65.70;;;;;;5093305;28;19923;-46
2022/03/27 12:03:29;;;;;;;;;;;16.00;58.80;;;;;;5093722;28;20513;-46
2022/03/27 12:06:02;;;;;;;;;;;16.00;61.10;;;;;;5093932;28;19951;-47
2022/03/27 12:08:31;;;;;;;;;;;16.10;63.30;;;;;;5093335;28;19908;-47
2022/03/27 12:10:57;;;;;;;;;;;16.10;70.20;;;;;;5093759;28;19908;-47
2022/03/27 12:13:23;;;;;;;;;;;16.20;68.70;;;;;;5093089;28;19915;-47
2022/03/27 12:15:50;;;;;;;;;;;16.40;70.40;;;;;;5093853;28;19912;-46
2022/03/27 12:18:27;;;;;;;;;;;16.60;66.20;;;;;;5093605;28;19908;-47
2022/03/27 12:20:53;;;;;;;;;;;16.60;66.40;;;;;;5092984;28;20379;-46
2022/03/27 12:23:25;;;;;;;;;;;16.80;64.10;;;;;;5093541;28;19912;-47
2022/03/27 12:25:57;;;;;;;;;;;16.80;57.90;;;;;;5093624;28;19915;-46
2022/03/27 12:31:17;;;;;;;;;;;16.90;60.70;;;;;;5093948;28;20393;-46
2022/03/27 12:33:43;;;;;;;;;;;17.00;59.60;;;;;;5093226;28;19920;-46
2022/03/27 12:36:13;;;;;;;;;;;17.10;64.90;;;;;;5092930;28;19914;-47
2022/03/27 12:38:39;;;;;;;;;;;17.10;56.80;;;;;;5093579;28;19908;-46
2022/03/27 12:41:06;;;;;;;;;;;17.00;53.50;;;;;;5093421;28;20019;-46
2022/03/27 12:43:32;;;;;;;;;;;17.00;56.70;;;;;;5093016;28;20012;-47
2022/03/27 12:45:58;;;;;;;;;;;17.00;58.00;;;;;;5093428;28;19919;-49
2022/03/27 12:48:27;;;;;;;;;;;17.10;57.70;;;;;;5093165;28;19995;-49
2022/03/27 12:50:54;;;;;;;;;;;17.20;58.00;;;;;;5093378;28;19908;-48
2022/03/27 12:53:20;;;;;;;;;;;17.20;58.50;;;;;;5093282;28;19908;-46
2022/03/27 12:55:48;;;;;;;;;;;17.40;59.20;;;;;;5092746;28;20452;-46
2022/03/27 12:58:16;;;;;;;;;;;17.40;56.20;;;;;;5093192;28;19908;-46
2022/03/27 13:00:43;;;;;;;;;;;17.60;59.00;;;;;;5097137;28;19941;-46
2022/03/27 13:03:08;;;;;;;;;;;17.60;56.40;;;;;;5096750;28;19989;-46
2022/03/27 13:05:34;;;;;;;;;;;17.70;56.80;;;;;;5097151;28;20364;-46
2022/03/27 13:07:59;;;;;;;;;;;17.80;55.60;;;;;;5097301;28;20351;-46
2022/03/27 13:10:26;;;;;;;;;;;17.80;55.30;;;;;;5096405;28;19931;-46
2022/03/27 13:12:57;;;;;;;;;;;17.80;56.40;;;;;;5097192;28;19908;-45
2022/03/27 13:15:36;;;;;;;;;;;17.90;54.70;;;;;;5097011;28;19914;-46
2022/03/27 13:18:24;;;;;;;;;;;18.10;52.70;;;;;;5096521;28;19909;-47
2022/03/27 13:20:49;;;;;;;;;;;18.30;52.40;;;;;;5096451;28;19964;-46
2022/03/27 13:23:16;;;;;;;;;;;18.50;54.00;;;;;;5096845;28;19967;-47
2022/03/27 13:25:41;;;;;;;;;;;18.60;52.40;;;;;;5096185;28;20266;-47
2022/03/27 13:28:08;;;;;;;;;;;18.70;50.60;;;;;;5096785;28;19912;-46
2022/03/27 13:30:33;;;;;;;;;;;18.80;49.10;;;;;;5096837;28;19908;-48
2022/03/27 13:33:00;;;;;;;;;;;18.80;50.20;;;;;;5096068;28;19926;-50
2022/03/27 13:35:25;;;;;;;;;;;19.00;49.40;;;;;;5096550;28;19908;-47
2022/03/27 13:37:51;;;;;;;;;;;19.20;51.10;;;;;;5096116;28;20256;-47
2022/03/27 13:40:17;;;;;;;;;;;19.40;47.90;;;;;;5096363;28;19912;-48
2022/03/27 13:42:58;;;;;;;;;;;19.70;52.10;;;;;;5096568;28;20361;-48
2022/03/27 13:45:27;;;;;;;;;;;19.80;51.90;;;;;;5095952;28;19908;-47
2022/03/27 13:47:53;;;;;;;;;;;20.00;50.30;;;;;;5096444;28;20351;-46
2022/03/27 13:50:18;;;;;;;;;;;20.20;51.20;;;;;;5096289;28;19957;-47
2022/03/27 13:52:44;;;;;;;;;;;20.00;45.00;;;;;;5095729;28;19908;-47
2022/03/27 13:55:09;;;;;;;;;;;20.20;48.10;;;;;;5096133;28;19909;-46
2022/03/27 13:57:35;;;;;;;;;;;20.30;49.90;;;;;;5096265;28;19912;-47
2022/03/27 14:00:00;;;;;;;;;;;20.30;44.80;;;;;;5095602;28;19970;-48
2022/03/27 14:02:26;;;;;;;;;;;20.30;45.70;;;;;;5096141;28;19916;-48
2022/03/27 14:04:52;;;;;;;;;;;20.50;47.10;;;;;;5096115;28;19912;-47
2022/03/27 14:07:18;;;;;;;;;;;20.70;44.50;;;;;;5095381;28;19968;-48
2022/03/27 14:09:44;;;;;;;;;;;20.70;45.00;;;;;;5095663;28;19908;-47
2022/03/27 14:12:10;;;;;;;;;;;20.90;44.10;;;;;;5095870;28;19915;-47
2022/03/27 14:14:36;;;;;;;;;;;21.00;47.70;;;;;;5095392;28;19912;-47
2022/03/27 14:17:02;;;;;;;;;;;21.10;43.60;;;;;;5095861;28;19908;-47
2022/03/27 14:19:28;;;;;;;;;;;21.20;43.90;;;;;;5095717;28;20387;-47
2022/03/27 14:21:55;;;;;;;;;;;21.40;45.90;;;;;;5095030;28;20031;-47
2022/03/27 14:24:21;;;;;;;;;;;21.50;43.50;;;;;;5095621;28;19915;-49
2022/03/27 14:26:46;;;;;;;;;;;21.60;43.30;;;;;;5095604;28;20448;-47
2022/03/27 14:29:13;;;;;;;;;;;21.70;44.80;;;;;;5095049;28;19915;-47
2022/03/27 14:31:39;;;;;;;;;;;21.90;43.80;;;;;;5095674;28;20432;-47